To NAV CANADA Home Page Login to a new session Search on AWWS site Disclaimer Vers la page française équivalente Tips FAQ What's new on the site To the Forecasts and Observations / NOTAM section To "File a Flight Plan" website Publications and other links Update of the User's profile FIC Telephone Numbers My Weather Data Folder Route Weather Data Regional Weather Data Local Weather Data To the Forecasts and Observations / NOTAM section
Request Generated 10/27/2020 at 09:51:26 UTC . Weather information available at that time is displayed.

METAR/TAF

If you find any discrepancies between the coded METAR/TAF and the plain language METAR/TAF please use the coded METAR/TAF. LWIS bulletins are not decoded in plain language.

CALGARY/YYC CALGARY INTL/AB    

METAR CYYC 270900Z 27020G31KT 10SM BKN250 10/M03 A2968 RMK CI5 SLP076 DENSITY A 4200FT=
METAR
LOCATION
CYYC - CALGARY/YYC CALGARY INTL/AB
DATE - TIME
27 OCTOBER 2020 - 0900 UTC
WIND
270 TRUE @ 20  KNOTS
GUSTS
31 KNOTS
VISIBILITY
10 STAT.  MILES
RUNWAY VISUAL RANGE
WEATHER
CLOUDINESS
BROKEN CLOUDS (5/8 - 7/8) 25000  FT
TEMP / DEWPOINT
10 C / -3 C
ALTIMETER
29.68 IN HG
RECENT WEATHER
WIND SHEAR

METAR CYYC 270800Z 28019G29KT 10SM BKN250 09/M02 A2967 RMK CI5 SLP076 DENSITY A 4100FT=
METAR
LOCATION
CYYC - CALGARY/YYC CALGARY INTL/AB
DATE - TIME
27 OCTOBER 2020 - 0800 UTC
WIND
280 TRUE @ 19  KNOTS
GUSTS
29 KNOTS
VISIBILITY
10 STAT.  MILES
RUNWAY VISUAL RANGE
WEATHER
CLOUDINESS
BROKEN CLOUDS (5/8 - 7/8) 25000  FT
TEMP / DEWPOINT
9 C / -2 C
ALTIMETER
29.67 IN HG
RECENT WEATHER
WIND SHEAR

SPECI CYYC 270732Z 27018G27KT 10SM SCT120 BKN240 09/M02 A2968 RMK AC3CI4 WSHFT 20 SLP080 DENSITY ALT 4100FT=
SPECI
LOCATION
CYYC - CALGARY/YYC CALGARY INTL/AB
DATE - TIME
27 OCTOBER 2020 - 0732 UTC
WIND
270 TRUE @ 18  KNOTS
GUSTS
27 KNOTS
VISIBILITY
10 STAT.  MILES
RUNWAY VISUAL RANGE
WEATHER
CLOUDINESS
SCATTERED CLOUDS (3/8 - 4/8) 12000  FT
BROKEN CLOUDS (5/8 - 7/8) 24000  FT
TEMP / DEWPOINT
9 C / -2 C
ALTIMETER
29.68 IN HG
RECENT WEATHER
WIND SHEAR

METAR CYYC 270700Z 17007KT 10SM FEW110 BKN230 02/M03 A2969 RMK AC1CI4 SLP093=
METAR
LOCATION
CYYC - CALGARY/YYC CALGARY INTL/AB
DATE - TIME
27 OCTOBER 2020 - 0700 UTC
WIND
170 TRUE @ 7  KNOTS
VISIBILITY
10 STAT.  MILES
RUNWAY VISUAL RANGE
WEATHER
CLOUDINESS
FEW CLOUDS (1/8 - 2/8) 11000  FT
BROKEN CLOUDS (5/8 - 7/8) 23000  FT
TEMP / DEWPOINT
2 C / -3 C
ALTIMETER
29.69 IN HG
RECENT WEATHER
WIND SHEAR

TAF CYYC 270838Z 2709/2806 28018G28KT P6SM SCT110 BKN250 TEMPO 2709/2713 27025G35KT FM271800 27015G25KT P6SM SCT110 BKN280 BECMG 2801/2803 29012KT FM280300 33008KT P6SM BKN070 OVC120 FM280500 01010KT 6SM -SHRASN SCT012 OVC025 TEMPO 2805/2806 11/2SM -SHSN VV012 RMK NXT FCST BY 271200Z=
TAF
LOCATION

CYYC - CALGARY/YYC CALGARY INTL/AB
VALIDITY [UTC]
27 OCT - 0838 to
28 OCT - 0600
 
TIMES
[UTC]
WIND
[DEGREES TRUE]
VISIBILITY
[STAT. MILES]
WEATHER
CLOUDINESS
[FEET AGL]
 
27 OCT - 0900 to
27 OCT - 1800
280 @ 18 KNOTS
GUSTS 28 KNOTS
6+
NIL
11000 SCATTERED
25000 BROKEN
TEMPORARY CHANGES
27 OCT - 0900 to
27 OCT - 1300
270 @ 25 KNOTS
GUSTS 35 KNOTS
 
 
 
 
27 OCT - 1800 to
28 OCT - 0300
270 @ 15 KNOTS
GUSTS 25 KNOTS
6+
NIL
11000 SCATTERED
28000 BROKEN
BECOMING
28 OCT - 0100 to
28 OCT - 0300
290 @ 12 KNOTS
 
 
 
 
28 OCT - 0300 to
28 OCT - 0500
330 @ 8 KNOTS
6+
NIL
7000 BROKEN
12000 OVERCAST
 
28 OCT - 0500 to
28 OCT - 0600
10 @ 10 KNOTS
6
LIGHT RAIN SHOWER
LIGHT SNOW SHOWER
1200 SCATTERED
2500 OVERCAST
TEMPORARY CHANGES
28 OCT - 0500 to
28 OCT - 0600
 
1 1/2
LIGHT SNOW SHOWER
VERTICAL VISIBILITY 1200
REMARKS
THE NEXT FORECAST WILL BE ISSUED BY 1200 UTC ON DAY 27


Your time UTC time
Weather data provided by Environment Canada and NAV CANADA